sensor_id;sensor_type;location;lat;lon;timestamp;P1;durP1;ratioP1;P2;durP2;ratioP2
10100;SDS011;5090;51.258;4.436;2023-06-22T00:02:17;5.82;;;4.45;;
10100;SDS011;5090;51.258;4.436;2023-06-22T00:04:45;8.13;;;5.05;;
10100;SDS011;5090;51.258;4.436;2023-06-22T00:07:13;6.00;;;4.57;;
10100;SDS011;5090;51.258;4.436;2023-06-22T00:09:42;6.67;;;4.30;;
10100;SDS011;5090;51.258;4.436;2023-06-22T00:12:10;7.78;;;4.45;;
10100;SDS011;5090;51.258;4.436;2023-06-22T00:14:38;6.63;;;4.50;;
10100;SDS011;5090;51.258;4.436;2023-06-22T00:17:06;8.02;;;4.72;;
10100;SDS011;5090;51.258;4.436;2023-06-22T00:19:34;7.78;;;4.62;;
10100;SDS011;5090;51.258;4.436;2023-06-22T00:22:03;6.83;;;4.70;;
10100;SDS011;5090;51.258;4.436;2023-06-22T00:24:31;8.23;;;4.97;;
10100;SDS011;5090;51.258;4.436;2023-06-22T00:26:59;6.43;;;4.60;;
10100;SDS011;5090;51.258;4.436;2023-06-22T00:29:27;6.50;;;4.23;;
10100;SDS011;5090;51.258;4.436;2023-06-22T00:31:56;7.47;;;4.70;;
10100;SDS011;5090;51.258;4.436;2023-06-22T00:34:24;8.47;;;4.97;;
10100;SDS011;5090;51.258;4.436;2023-06-22T00:36:52;7.27;;;4.37;;
10100;SDS011;5090;51.258;4.436;2023-06-22T00:39:20;6.97;;;5.10;;
10100;SDS011;5090;51.258;4.436;2023-06-22T00:41:48;7.03;;;4.83;;
10100;SDS011;5090;51.258;4.436;2023-06-22T00:44:17;7.53;;;4.77;;
10100;SDS011;5090;51.258;4.436;2023-06-22T00:46:45;7.33;;;5.20;;
10100;SDS011;5090;51.258;4.436;2023-06-22T00:49:13;5.40;;;4.90;;
10100;SDS011;5090;51.258;4.436;2023-06-22T00:51:41;7.17;;;4.77;;
10100;SDS011;5090;51.258;4.436;2023-06-22T00:54:10;5.73;;;4.63;;
10100;SDS011;5090;51.258;4.436;2023-06-22T00:56:38;8.30;;;4.80;;
10100;SDS011;5090;51.258;4.436;2023-06-22T00:59:06;8.70;;;5.03;;
10100;SDS011;5090;51.258;4.436;2023-06-22T01:01:34;6.53;;;5.00;;
10100;SDS011;5090;51.258;4.436;2023-06-22T01:04:02;5.50;;;4.90;;
10100;SDS011;5090;51.258;4.436;2023-06-22T01:06:33;6.10;;;5.23;;
10100;SDS011;5090;51.258;4.436;2023-06-22T01:09:01;9.27;;;5.13;;
10100;SDS011;5090;51.258;4.436;2023-06-22T01:11:32;7.37;;;4.90;;
10100;SDS011;5090;51.258;4.436;2023-06-22T01:14:04;7.90;;;4.90;;
10100;SDS011;5090;51.258;4.436;2023-06-22T01:16:30;6.73;;;5.27;;
10100;SDS011;5090;51.258;4.436;2023-06-22T01:19:00;10.87;;;5.47;;
10100;SDS011;5090;51.258;4.436;2023-06-22T01:21:28;8.07;;;5.47;;
10100;SDS011;5090;51.258;4.436;2023-06-22T01:23:58;8.43;;;5.37;;
10100;SDS011;5090;51.258;4.436;2023-06-22T01:26:29;9.73;;;5.80;;
10100;SDS011;5090;51.258;4.436;2023-06-22T01:28:55;7.27;;;5.20;;
10100;SDS011;5090;51.258;4.436;2023-06-22T01:31:24;6.97;;;5.60;;
10100;SDS011;5090;51.258;4.436;2023-06-22T01:33:54;7.40;;;5.30;;
10100;SDS011;5090;51.258;4.436;2023-06-22T01:36:21;6.50;;;5.83;;
10100;SDS011;5090;51.258;4.436;2023-06-22T01:38:49;9.20;;;5.23;;
10100;SDS011;5090;51.258;4.436;2023-06-22T01:41:18;9.93;;;6.03;;
10100;SDS011;5090;51.258;4.436;2023-06-22T01:43:46;9.40;;;6.03;;
10100;SDS011;5090;51.258;4.436;2023-06-22T01:46:14;6.63;;;4.97;;
10100;SDS011;5090;51.258;4.436;2023-06-22T01:48:42;11.80;;;5.43;;
10100;SDS011;5090;51.258;4.436;2023-06-22T01:51:11;9.10;;;5.90;;
10100;SDS011;5090;51.258;4.436;2023-06-22T01:53:39;9.03;;;6.30;;
10100;SDS011;5090;51.258;4.436;2023-06-22T01:56:07;9.30;;;5.80;;
10100;SDS011;5090;51.258;4.436;2023-06-22T01:58:36;10.87;;;5.90;;
10100;SDS011;5090;51.258;4.436;2023-06-22T02:01:09;8.53;;;5.33;;
10100;SDS011;5090;51.258;4.436;2023-06-22T02:03:34;8.50;;;6.00;;
10100;SDS011;5090;51.258;4.436;2023-06-22T02:06:03;10.50;;;5.80;;
10100;SDS011;5090;51.258;4.436;2023-06-22T02:08:35;11.13;;;5.80;;
10100;SDS011;5090;51.258;4.436;2023-06-22T02:11:00;6.07;;;5.17;;
10100;SDS011;5090;51.258;4.436;2023-06-22T02:13:28;7.33;;;5.23;;
10100;SDS011;5090;51.258;4.436;2023-06-22T02:15:56;8.70;;;5.73;;
10100;SDS011;5090;51.258;4.436;2023-06-22T02:18:25;9.10;;;6.03;;
10100;SDS011;5090;51.258;4.436;2023-06-22T02:20:53;7.50;;;5.70;;
10100;SDS011;5090;51.258;4.436;2023-06-22T02:23:21;9.90;;;6.07;;
10100;SDS011;5090;51.258;4.436;2023-06-22T02:25:49;10.27;;;6.00;;
10100;SDS011;5090;51.258;4.436;2023-06-22T02:28:18;8.33;;;6.10;;
10100;SDS011;5090;51.258;4.436;2023-06-22T02:30:46;8.00;;;6.03;;
10100;SDS011;5090;51.258;4.436;2023-06-22T02:33:14;9.27;;;6.60;;
10100;SDS011;5090;51.258;4.436;2023-06-22T02:35:42;8.00;;;5.63;;
10100;SDS011;5090;51.258;4.436;2023-06-22T02:38:10;10.43;;;6.53;;
10100;SDS011;5090;51.258;4.436;2023-06-22T02:40:39;9.30;;;6.47;;
10100;SDS011;5090;51.258;4.436;2023-06-22T02:43:07;7.27;;;5.70;;
10100;SDS011;5090;51.258;4.436;2023-06-22T02:45:35;8.17;;;5.63;;
10100;SDS011;5090;51.258;4.436;2023-06-22T02:48:03;9.17;;;5.80;;
10100;SDS011;5090;51.258;4.436;2023-06-22T02:50:31;7.13;;;6.07;;
10100;SDS011;5090;51.258;4.436;2023-06-22T02:53:00;10.57;;;6.13;;
10100;SDS011;5090;51.258;4.436;2023-06-22T02:55:29;8.53;;;6.00;;
10100;SDS011;5090;51.258;4.436;2023-06-22T02:57:58;9.70;;;6.30;;
10100;SDS011;5090;51.258;4.436;2023-06-22T03:00:26;9.70;;;6.27;;
10100;SDS011;5090;51.258;4.436;2023-06-22T03:02:55;7.37;;;6.00;;
10100;SDS011;5090;51.258;4.436;2023-06-22T03:05:23;8.37;;;6.53;;
10100;SDS011;5090;51.258;4.436;2023-06-22T03:07:51;8.57;;;6.20;;
10100;SDS011;5090;51.258;4.436;2023-06-22T03:10:19;9.00;;;6.43;;
10100;SDS011;5090;51.258;4.436;2023-06-22T03:12:47;8.07;;;6.63;;
10100;SDS011;5090;51.258;4.436;2023-06-22T03:15:16;7.87;;;6.47;;
10100;SDS011;5090;51.258;4.436;2023-06-22T03:17:44;9.23;;;6.90;;
10100;SDS011;5090;51.258;4.436;2023-06-22T03:20:12;10.73;;;6.67;;
10100;SDS011;5090;51.258;4.436;2023-06-22T03:22:41;10.37;;;7.53;;
10100;SDS011;5090;51.258;4.436;2023-06-22T03:25:09;10.13;;;6.97;;
10100;SDS011;5090;51.258;4.436;2023-06-22T03:27:37;9.47;;;7.13;;
10100;SDS011;5090;51.258;4.436;2023-06-22T03:30:06;10.70;;;7.47;;
10100;SDS011;5090;51.258;4.436;2023-06-22T03:32:34;10.87;;;7.57;;
10100;SDS011;5090;51.258;4.436;2023-06-22T03:35:02;12.43;;;7.80;;
10100;SDS011;5090;51.258;4.436;2023-06-22T03:37:31;11.03;;;7.67;;
10100;SDS011;5090;51.258;4.436;2023-06-22T03:39:59;9.97;;;7.73;;
10100;SDS011;5090;51.258;4.436;2023-06-22T03:42:27;10.37;;;7.57;;
10100;SDS011;5090;51.258;4.436;2023-06-22T03:44:55;10.73;;;7.83;;
10100;SDS011;5090;51.258;4.436;2023-06-22T03:47:24;11.90;;;8.43;;
10100;SDS011;5090;51.258;4.436;2023-06-22T03:49:52;11.30;;;9.13;;
10100;SDS011;5090;51.258;4.436;2023-06-22T03:52:21;15.40;;;9.07;;
10100;SDS011;5090;51.258;4.436;2023-06-22T03:54:48;12.07;;;8.37;;
10100;SDS011;5090;51.258;4.436;2023-06-22T03:57:17;10.77;;;8.43;;
10100;SDS011;5090;51.258;4.436;2023-06-22T03:59:45;14.80;;;8.47;;
10100;SDS011;5090;51.258;4.436;2023-06-22T04:02:13;12.43;;;8.97;;
10100;SDS011;5090;51.258;4.436;2023-06-22T04:04:41;15.83;;;9.10;;
10100;SDS011;5090;51.258;4.436;2023-06-22T04:07:10;14.23;;;9.70;;
10100;SDS011;5090;51.258;4.436;2023-06-22T04:09:38;12.97;;;8.77;;
10100;SDS011;5090;51.258;4.436;2023-06-22T04:12:06;14.83;;;9.07;;
10100;SDS011;5090;51.258;4.436;2023-06-22T04:14:35;12.30;;;9.30;;
10100;SDS011;5090;51.258;4.436;2023-06-22T04:17:04;15.07;;;9.27;;
10100;SDS011;5090;51.258;4.436;2023-06-22T04:19:31;13.13;;;9.80;;
10100;SDS011;5090;51.258;4.436;2023-06-22T04:22:00;18.20;;;9.77;;
10100;SDS011;5090;51.258;4.436;2023-06-22T04:24:28;12.50;;;9.00;;
10100;SDS011;5090;51.258;4.436;2023-06-22T04:26:56;14.60;;;9.50;;
10100;SDS011;5090;51.258;4.436;2023-06-22T04:29:24;11.57;;;9.77;;
10100;SDS011;5090;51.258;4.436;2023-06-22T04:31:53;13.17;;;9.83;;
10100;SDS011;5090;51.258;4.436;2023-06-22T04:34:21;13.83;;;10.03;;
10100;SDS011;5090;51.258;4.436;2023-06-22T04:36:49;15.03;;;10.57;;
10100;SDS011;5090;51.258;4.436;2023-06-22T04:39:17;17.10;;;10.57;;
10100;SDS011;5090;51.258;4.436;2023-06-22T04:41:45;13.70;;;9.98;;
10100;SDS011;5090;51.258;4.436;2023-06-22T04:44:14;12.85;;;9.85;;
10100;SDS011;5090;51.258;4.436;2023-06-22T04:46:42;11.93;;;9.27;;
10100;SDS011;5090;51.258;4.436;2023-06-22T04:49:10;14.38;;;9.60;;
10100;SDS011;5090;51.258;4.436;2023-06-22T04:51:39;12.73;;;10.25;;
10100;SDS011;5090;51.258;4.436;2023-06-22T04:54:08;11.77;;;9.27;;
10100;SDS011;5090;51.258;4.436;2023-06-22T04:56:36;11.43;;;9.50;;
10100;SDS011;5090;51.258;4.436;2023-06-22T04:59:04;12.27;;;9.98;;
10100;SDS011;5090;51.258;4.436;2023-06-22T05:01:32;14.82;;;10.68;;
10100;SDS011;5090;51.258;4.436;2023-06-22T05:04:00;13.00;;;10.57;;
10100;SDS011;5090;51.258;4.436;2023-06-22T05:06:28;12.70;;;10.38;;
10100;SDS011;5090;51.258;4.436;2023-06-22T05:08:57;12.85;;;9.27;;
10100;SDS011;5090;51.258;4.436;2023-06-22T05:11:25;12.85;;;9.65;;
10100;SDS011;5090;51.258;4.436;2023-06-22T05:13:54;14.23;;;9.82;;
10100;SDS011;5090;51.258;4.436;2023-06-22T05:16:22;11.48;;;9.73;;
10100;SDS011;5090;51.258;4.436;2023-06-22T05:18:52;11.73;;;9.05;;
10100;SDS011;5090;51.258;4.436;2023-06-22T05:21:22;13.77;;;9.38;;
10100;SDS011;5090;51.258;4.436;2023-06-22T05:23:50;14.32;;;10.10;;
10100;SDS011;5090;51.258;4.436;2023-06-22T05:26:18;11.02;;;9.50;;
10100;SDS011;5090;51.258;4.436;2023-06-22T05:28:46;13.45;;;9.65;;
10100;SDS011;5090;51.258;4.436;2023-06-22T05:31:14;11.98;;;9.93;;
10100;SDS011;5090;51.258;4.436;2023-06-22T05:33:43;12.75;;;9.82;;
10100;SDS011;5090;51.258;4.436;2023-06-22T05:36:11;12.98;;;10.32;;
10100;SDS011;5090;51.258;4.436;2023-06-22T05:38:40;12.40;;;10.18;;
10100;SDS011;5090;51.258;4.436;2023-06-22T05:41:08;12.98;;;10.85;;
10100;SDS011;5090;51.258;4.436;2023-06-22T05:43:37;15.40;;;10.68;;
10100;SDS011;5090;51.258;4.436;2023-06-22T05:46:05;14.23;;;10.93;;
10100;SDS011;5090;51.258;4.436;2023-06-22T05:48:34;14.80;;;10.98;;
10100;SDS011;5090;51.258;4.436;2023-06-22T05:51:02;15.50;;;12.15;;
10100;SDS011;5090;51.258;4.436;2023-06-22T05:53:31;13.80;;;11.45;;
10100;SDS011;5090;51.258;4.436;2023-06-22T05:55:59;17.75;;;12.32;;
10100;SDS011;5090;51.258;4.436;2023-06-22T05:58:27;14.23;;;10.85;;
10100;SDS011;5090;51.258;4.436;2023-06-22T06:00:55;17.58;;;11.77;;
10100;SDS011;5090;51.258;4.436;2023-06-22T06:03:23;15.68;;;12.02;;
10100;SDS011;5090;51.258;4.436;2023-06-22T06:05:52;15.45;;;12.27;;
10100;SDS011;5090;51.258;4.436;2023-06-22T06:08:20;15.88;;;12.48;;
10100;SDS011;5090;51.258;4.436;2023-06-22T06:10:49;15.23;;;12.65;;
10100;SDS011;5090;51.258;4.436;2023-06-22T06:13:17;16.23;;;11.50;;
10100;SDS011;5090;51.258;4.436;2023-06-22T06:15:45;19.25;;;12.68;;
10100;SDS011;5090;51.258;4.436;2023-06-22T06:18:13;16.98;;;12.98;;
10100;SDS011;5090;51.258;4.436;2023-06-22T06:20:41;14.77;;;12.15;;
10100;SDS011;5090;51.258;4.436;2023-06-22T06:23:10;18.20;;;12.02;;
10100;SDS011;5090;51.258;4.436;2023-06-22T06:25:38;14.75;;;12.32;;
10100;SDS011;5090;51.258;4.436;2023-06-22T06:28:06;14.50;;;12.75;;
10100;SDS011;5090;51.258;4.436;2023-06-22T06:30:34;15.07;;;12.63;;
10100;SDS011;5090;51.258;4.436;2023-06-22T06:33:03;16.62;;;12.48;;
10100;SDS011;5090;51.258;4.436;2023-06-22T06:35:31;16.15;;;12.57;;
10100;SDS011;5090;51.258;4.436;2023-06-22T06:37:59;17.73;;;13.07;;
10100;SDS011;5090;51.258;4.436;2023-06-22T06:40:27;17.85;;;12.80;;
10100;SDS011;5090;51.258;4.436;2023-06-22T06:42:55;16.20;;;13.50;;
10100;SDS011;5090;51.258;4.436;2023-06-22T06:45:24;17.50;;;13.60;;
10100;SDS011;5090;51.258;4.436;2023-06-22T06:47:52;14.15;;;12.45;;
10100;SDS011;5090;51.258;4.436;2023-06-22T06:50:20;19.37;;;13.43;;
10100;SDS011;5090;51.258;4.436;2023-06-22T06:52:48;14.07;;;12.57;;
10100;SDS011;5090;51.258;4.436;2023-06-22T06:55:17;17.05;;;12.52;;
10100;SDS011;5090;51.258;4.436;2023-06-22T06:57:45;16.92;;;13.85;;
10100;SDS011;5090;51.258;4.436;2023-06-22T07:00:14;15.45;;;13.15;;
10100;SDS011;5090;51.258;4.436;2023-06-22T07:02:43;23.70;;;13.13;;
10100;SDS011;5090;51.258;4.436;2023-06-22T07:05:10;15.23;;;13.35;;
10100;SDS011;5090;51.258;4.436;2023-06-22T07:07:38;19.15;;;13.18;;
10100;SDS011;5090;51.258;4.436;2023-06-22T07:10:06;20.08;;;13.13;;
10100;SDS011;5090;51.258;4.436;2023-06-22T07:12:35;17.42;;;13.23;;
10100;SDS011;5090;51.258;4.436;2023-06-22T07:15:04;18.23;;;13.23;;
10100;SDS011;5090;51.258;4.436;2023-06-22T07:17:33;18.12;;;14.23;;
10100;SDS011;5090;51.258;4.436;2023-06-22T07:20:01;17.62;;;14.68;;
10100;SDS011;5090;51.258;4.436;2023-06-22T07:22:29;17.58;;;14.45;;
10100;SDS011;5090;51.258;4.436;2023-06-22T07:24:58;17.55;;;13.70;;
10100;SDS011;5090;51.258;4.436;2023-06-22T07:27:26;16.30;;;14.20;;
10100;SDS011;5090;51.258;4.436;2023-06-22T07:29:55;17.92;;;14.27;;
10100;SDS011;5090;51.258;4.436;2023-06-22T07:32:23;17.65;;;14.10;;
10100;SDS011;5090;51.258;4.436;2023-06-22T07:34:51;20.45;;;14.63;;
10100;SDS011;5090;51.258;4.436;2023-06-22T07:37:19;19.90;;;15.35;;
10100;SDS011;5090;51.258;4.436;2023-06-22T07:39:48;19.33;;;14.13;;
10100;SDS011;5090;51.258;4.436;2023-06-22T07:42:16;19.98;;;14.85;;
10100;SDS011;5090;51.258;4.436;2023-06-22T07:44:44;18.60;;;14.73;;
10100;SDS011;5090;51.258;4.436;2023-06-22T07:47:12;18.12;;;15.00;;
10100;SDS011;5090;51.258;4.436;2023-06-22T07:49:40;18.87;;;15.38;;
10100;SDS011;5090;51.258;4.436;2023-06-22T07:52:09;20.95;;;15.00;;
10100;SDS011;5090;51.258;4.436;2023-06-22T07:54:37;20.05;;;14.68;;
10100;SDS011;5090;51.258;4.436;2023-06-22T07:57:05;16.67;;;14.40;;
10100;SDS011;5090;51.258;4.436;2023-06-22T07:59:33;18.37;;;14.70;;
10100;SDS011;5090;51.258;4.436;2023-06-22T08:02:02;17.10;;;14.85;;
10100;SDS011;5090;51.258;4.436;2023-06-22T08:04:30;20.05;;;14.57;;
10100;SDS011;5090;51.258;4.436;2023-06-22T08:06:59;18.90;;;14.90;;
10100;SDS011;5090;51.258;4.436;2023-06-22T08:09:28;20.00;;;15.43;;
10100;SDS011;5090;51.258;4.436;2023-06-22T08:11:56;20.73;;;15.82;;
10100;SDS011;5090;51.258;4.436;2023-06-22T08:14:25;20.12;;;15.25;;
10100;SDS011;5090;51.258;4.436;2023-06-22T08:16:52;17.77;;;15.70;;
10100;SDS011;5090;51.258;4.436;2023-06-22T08:19:21;19.30;;;16.27;;
10100;SDS011;5090;51.258;4.436;2023-06-22T08:21:49;20.05;;;15.95;;
10100;SDS011;5090;51.258;4.436;2023-06-22T08:24:17;18.27;;;15.02;;
10100;SDS011;5090;51.258;4.436;2023-06-22T08:26:46;19.55;;;15.73;;
10100;SDS011;5090;51.258;4.436;2023-06-22T08:29:14;19.92;;;15.48;;
10100;SDS011;5090;51.258;4.436;2023-06-22T08:31:42;20.15;;;15.52;;
10100;SDS011;5090;51.258;4.436;2023-06-22T08:34:10;21.05;;;15.73;;
10100;SDS011;5090;51.258;4.436;2023-06-22T08:36:39;23.30;;;16.62;;
10100;SDS011;5090;51.258;4.436;2023-06-22T08:39:07;21.15;;;15.27;;
10100;SDS011;5090;51.258;4.436;2023-06-22T08:41:35;23.90;;;15.82;;
10100;SDS011;5090;51.258;4.436;2023-06-22T08:44:03;18.08;;;14.27;;
10100;SDS011;5090;51.258;4.436;2023-06-22T08:46:32;19.95;;;14.95;;
10100;SDS011;5090;51.258;4.436;2023-06-22T08:49:00;17.98;;;14.38;;
10100;SDS011;5090;51.258;4.436;2023-06-22T08:51:28;19.02;;;14.65;;
10100;SDS011;5090;51.258;4.436;2023-06-22T08:53:56;18.92;;;14.15;;
10100;SDS011;5090;51.258;4.436;2023-06-22T08:56:25;19.02;;;15.40;;
10100;SDS011;5090;51.258;4.436;2023-06-22T08:58:53;17.58;;;15.20;;
10100;SDS011;5090;51.258;4.436;2023-06-22T09:01:21;19.27;;;13.93;;
10100;SDS011;5090;51.258;4.436;2023-06-22T09:03:49;18.48;;;14.30;;
10100;SDS011;5090;51.258;4.436;2023-06-22T09:06:17;20.42;;;15.05;;
10100;SDS011;5090;51.258;4.436;2023-06-22T09:08:46;20.30;;;15.32;;
10100;SDS011;5090;51.258;4.436;2023-06-22T09:11:14;19.20;;;14.75;;
10100;SDS011;5090;51.258;4.436;2023-06-22T09:13:42;17.98;;;15.45;;
10100;SDS011;5090;51.258;4.436;2023-06-22T09:16:10;20.55;;;15.05;;
10100;SDS011;5090;51.258;4.436;2023-06-22T09:18:39;20.55;;;15.55;;
10100;SDS011;5090;51.258;4.436;2023-06-22T09:21:07;19.33;;;15.45;;
10100;SDS011;5090;51.258;4.436;2023-06-22T09:23:36;17.77;;;15.52;;
10100;SDS011;5090;51.258;4.436;2023-06-22T09:26:05;18.05;;;14.63;;
10100;SDS011;5090;51.258;4.436;2023-06-22T09:28:33;21.10;;;15.15;;
10100;SDS011;5090;51.258;4.436;2023-06-22T09:31:01;20.25;;;14.63;;
10100;SDS011;5090;51.258;4.436;2023-06-22T09:33:29;20.33;;;14.50;;
10100;SDS011;5090;51.258;4.436;2023-06-22T09:35:57;18.05;;;13.70;;
10100;SDS011;5090;51.258;4.436;2023-06-22T09:38:26;18.50;;;15.90;;
10100;SDS011;5090;51.258;4.436;2023-06-22T09:40:54;18.98;;;14.32;;
10100;SDS011;5090;51.258;4.436;2023-06-22T09:43:22;18.10;;;13.25;;
10100;SDS011;5090;51.258;4.436;2023-06-22T09:45:50;16.65;;;13.32;;
10100;SDS011;5090;51.258;4.436;2023-06-22T09:48:19;16.23;;;13.10;;
10100;SDS011;5090;51.258;4.436;2023-06-22T09:50:47;15.93;;;12.75;;
10100;SDS011;5090;51.258;4.436;2023-06-22T09:53:15;16.10;;;12.30;;
10100;SDS011;5090;51.258;4.436;2023-06-22T09:55:43;17.58;;;12.40;;
10100;SDS011;5090;51.258;4.436;2023-06-22T09:58:12;14.95;;;11.65;;
10100;SDS011;5090;51.258;4.436;2023-06-22T10:00:40;13.10;;;11.60;;
10100;SDS011;5090;51.258;4.436;2023-06-22T10:03:08;13.88;;;11.12;;
10100;SDS011;5090;51.258;4.436;2023-06-22T10:05:36;15.63;;;11.35;;
10100;SDS011;5090;51.258;4.436;2023-06-22T10:08:04;13.75;;;10.48;;
10100;SDS011;5090;51.258;4.436;2023-06-22T10:10:33;14.95;;;11.02;;
10100;SDS011;5090;51.258;4.436;2023-06-22T10:13:08;14.07;;;10.40;;
10100;SDS011;5090;51.258;4.436;2023-06-22T10:15:31;13.88;;;10.38;;
10100;SDS011;5090;51.258;4.436;2023-06-22T10:17:59;14.85;;;10.70;;
10100;SDS011;5090;51.258;4.436;2023-06-22T10:20:27;12.23;;;9.88;;
10100;SDS011;5090;51.258;4.436;2023-06-22T10:22:55;11.52;;;10.02;;
10100;SDS011;5090;51.258;4.436;2023-06-22T10:25:24;12.93;;;9.48;;
10100;SDS011;5090;51.258;4.436;2023-06-22T10:27:52;10.85;;;8.85;;
10100;SDS011;5090;51.258;4.436;2023-06-22T10:30:20;11.20;;;9.27;;
10100;SDS011;5090;51.258;4.436;2023-06-22T10:32:48;13.35;;;9.82;;
10100;SDS011;5090;51.258;4.436;2023-06-22T10:35:16;15.27;;;9.68;;
10100;SDS011;5090;51.258;4.436;2023-06-22T10:37:45;11.10;;;9.70;;
10100;SDS011;5090;51.258;4.436;2023-06-22T10:40:13;14.20;;;10.18;;
10100;SDS011;5090;51.258;4.436;2023-06-22T10:42:41;12.55;;;9.95;;
10100;SDS011;5090;51.258;4.436;2023-06-22T10:45:10;15.05;;;10.73;;
10100;SDS011;5090;51.258;4.436;2023-06-22T10:47:38;15.23;;;10.32;;
10100;SDS011;5090;51.258;4.436;2023-06-22T10:50:06;14.98;;;11.52;;
10100;SDS011;5090;51.258;4.436;2023-06-22T10:52:35;17.12;;;12.25;;
10100;SDS011;5090;51.258;4.436;2023-06-22T10:55:03;15.95;;;12.50;;
10100;SDS011;5090;51.258;4.436;2023-06-22T10:57:32;27.73;;;12.25;;
10100;SDS011;5090;51.258;4.436;2023-06-22T11:00:00;19.77;;;11.93;;
10100;SDS011;5090;51.258;4.436;2023-06-22T11:02:29;19.80;;;13.10;;
10100;SDS011;5090;51.258;4.436;2023-06-22T11:04:57;15.98;;;12.95;;
10100;SDS011;5090;51.258;4.436;2023-06-22T11:07:25;21.92;;;14.40;;
10100;SDS011;5090;51.258;4.436;2023-06-22T11:09:53;20.70;;;14.40;;
10100;SDS011;5090;51.258;4.436;2023-06-22T11:12:21;25.30;;;14.65;;
10100;SDS011;5090;51.258;4.436;2023-06-22T11:14:50;22.15;;;14.93;;
10100;SDS011;5090;51.258;4.436;2023-06-22T11:17:18;20.73;;;15.77;;
10100;SDS011;5090;51.258;4.436;2023-06-22T11:19:47;28.85;;;17.02;;
10100;SDS011;5090;51.258;4.436;2023-06-22T11:22:16;28.80;;;18.12;;
10100;SDS011;5090;51.258;4.436;2023-06-22T11:24:44;29.08;;;17.30;;
10100;SDS011;5090;51.258;4.436;2023-06-22T11:27:12;29.43;;;17.50;;
10100;SDS011;5090;51.258;4.436;2023-06-22T11:29:40;26.45;;;17.52;;
10100;SDS011;5090;51.258;4.436;2023-06-22T11:32:08;29.05;;;18.90;;
10100;SDS011;5090;51.258;4.436;2023-06-22T11:34:37;26.90;;;19.05;;
10100;SDS011;5090;51.258;4.436;2023-06-22T11:37:05;26.15;;;19.50;;
10100;SDS011;5090;51.258;4.436;2023-06-22T11:39:33;30.92;;;19.95;;
10100;SDS011;5090;51.258;4.436;2023-06-22T11:42:01;30.50;;;20.88;;
10100;SDS011;5090;51.258;4.436;2023-06-22T11:44:30;27.25;;;21.92;;
10100;SDS011;5090;51.258;4.436;2023-06-22T11:46:58;35.15;;;21.87;;
10100;SDS011;5090;51.258;4.436;2023-06-22T11:49:26;27.62;;;22.60;;
10100;SDS011;5090;51.258;4.436;2023-06-22T11:51:54;32.92;;;23.65;;
10100;SDS011;5090;51.258;4.436;2023-06-22T11:54:23;29.58;;;23.50;;
10100;SDS011;5090;51.258;4.436;2023-06-22T11:56:51;34.85;;;24.48;;
10100;SDS011;5090;51.258;4.436;2023-06-22T11:59:19;39.25;;;25.42;;
10100;SDS011;5090;51.258;4.436;2023-06-22T12:01:47;34.73;;;25.10;;
10100;SDS011;5090;51.258;4.436;2023-06-22T12:04:16;32.60;;;25.00;;
10100;SDS011;5090;51.258;4.436;2023-06-22T12:06:44;32.17;;;25.23;;
10100;SDS011;5090;51.258;4.436;2023-06-22T12:09:13;35.00;;;26.60;;
10100;SDS011;5090;51.258;4.436;2023-06-22T12:11:41;30.87;;;24.00;;
10100;SDS011;5090;51.258;4.436;2023-06-22T12:14:09;40.03;;;25.58;;
10100;SDS011;5090;51.258;4.436;2023-06-22T12:16:37;28.73;;;24.47;;
10100;SDS011;5090;51.258;4.436;2023-06-22T12:19:05;31.60;;;24.87;;
10100;SDS011;5090;51.258;4.436;2023-06-22T12:21:33;31.83;;;26.37;;
10100;SDS011;5090;51.258;4.436;2023-06-22T12:24:02;35.50;;;26.53;;
10100;SDS011;5090;51.258;4.436;2023-06-22T12:26:30;38.23;;;27.77;;
10100;SDS011;5090;51.258;4.436;2023-06-22T12:28:58;31.47;;;25.03;;
10100;SDS011;5090;51.258;4.436;2023-06-22T12:31:27;36.23;;;25.73;;
10100;SDS011;5090;51.258;4.436;2023-06-22T12:33:55;33.50;;;24.83;;
10100;SDS011;5090;51.258;4.436;2023-06-22T12:36:23;35.17;;;25.30;;
10100;SDS011;5090;51.258;4.436;2023-06-22T12:38:51;34.67;;;26.87;;
10100;SDS011;5090;51.258;4.436;2023-06-22T12:41:19;35.87;;;27.10;;
10100;SDS011;5090;51.258;4.436;2023-06-22T12:43:47;35.23;;;26.90;;
10100;SDS011;5090;51.258;4.436;2023-06-22T12:46:15;36.53;;;28.93;;
10100;SDS011;5090;51.258;4.436;2023-06-22T12:48:44;41.57;;;29.33;;
10100;SDS011;5090;51.258;4.436;2023-06-22T12:51:12;38.67;;;27.80;;
10100;SDS011;5090;51.258;4.436;2023-06-22T12:53:41;36.87;;;27.37;;
10100;SDS011;5090;51.258;4.436;2023-06-22T12:56:09;38.40;;;26.87;;
10100;SDS011;5090;51.258;4.436;2023-06-22T12:58:37;37.83;;;28.10;;
10100;SDS011;5090;51.258;4.436;2023-06-22T13:01:06;34.20;;;27.00;;
10100;SDS011;5090;51.258;4.436;2023-06-22T13:03:34;39.83;;;28.23;;
10100;SDS011;5090;51.258;4.436;2023-06-22T13:06:02;38.63;;;28.97;;
10100;SDS011;5090;51.258;4.436;2023-06-22T13:08:30;37.47;;;28.33;;
10100;SDS011;5090;51.258;4.436;2023-06-22T13:10:59;35.95;;;29.73;;
10100;SDS011;5090;51.258;4.436;2023-06-22T13:13:27;42.57;;;31.87;;
10100;SDS011;5090;51.258;4.436;2023-06-22T13:15:55;42.10;;;32.13;;
10100;SDS011;5090;51.258;4.436;2023-06-22T13:18:23;43.50;;;33.17;;
10100;SDS011;5090;51.258;4.436;2023-06-22T13:20:51;43.63;;;34.37;;
10100;SDS011;5090;51.258;4.436;2023-06-22T13:23:21;44.57;;;33.43;;
10100;SDS011;5090;51.258;4.436;2023-06-22T13:25:49;39.95;;;32.50;;
10100;SDS011;5090;51.258;4.436;2023-06-22T13:28:18;40.75;;;32.97;;
10100;SDS011;5090;51.258;4.436;2023-06-22T13:30:46;47.23;;;34.10;;
10100;SDS011;5090;51.258;4.436;2023-06-22T13:33:14;41.22;;;33.80;;
10100;SDS011;5090;51.258;4.436;2023-06-22T13:35:42;48.50;;;34.03;;
10100;SDS011;5090;51.258;4.436;2023-06-22T13:38:11;47.20;;;33.92;;
10100;SDS011;5090;51.258;4.436;2023-06-22T13:40:39;45.83;;;33.85;;
10100;SDS011;5090;51.258;4.436;2023-06-22T13:43:07;43.67;;;33.75;;
10100;SDS011;5090;51.258;4.436;2023-06-22T13:45:35;43.20;;;33.53;;
10100;SDS011;5090;51.258;4.436;2023-06-22T13:48:04;43.95;;;34.83;;
10100;SDS011;5090;51.258;4.436;2023-06-22T13:50:32;53.10;;;35.87;;
10100;SDS011;5090;51.258;4.436;2023-06-22T13:53:00;52.65;;;36.33;;
10100;SDS011;5090;51.258;4.436;2023-06-22T13:55:28;50.17;;;36.55;;
10100;SDS011;5090;51.258;4.436;2023-06-22T13:57:57;51.10;;;36.40;;
10100;SDS011;5090;51.258;4.436;2023-06-22T14:00:25;49.90;;;37.13;;
10100;SDS011;5090;51.258;4.436;2023-06-22T14:02:53;55.57;;;37.50;;
10100;SDS011;5090;51.258;4.436;2023-06-22T14:05:21;55.20;;;37.47;;
10100;SDS011;5090;51.258;4.436;2023-06-22T14:07:49;51.85;;;37.45;;
10100;SDS011;5090;51.258;4.436;2023-06-22T14:10:18;53.75;;;35.53;;
10100;SDS011;5090;51.258;4.436;2023-06-22T14:12:46;48.75;;;36.20;;
10100;SDS011;5090;51.258;4.436;2023-06-22T14:15:14;53.07;;;35.10;;
10100;SDS011;5090;51.258;4.436;2023-06-22T14:17:43;49.55;;;35.08;;
10100;SDS011;5090;51.258;4.436;2023-06-22T14:20:11;49.85;;;34.47;;
10100;SDS011;5090;51.258;4.436;2023-06-22T14:22:39;49.43;;;35.27;;
10100;SDS011;5090;51.258;4.436;2023-06-22T14:25:07;49.23;;;34.40;;
10100;SDS011;5090;51.258;4.436;2023-06-22T14:27:36;47.73;;;34.40;;
10100;SDS011;5090;51.258;4.436;2023-06-22T14:30:04;51.73;;;35.27;;
10100;SDS011;5090;51.258;4.436;2023-06-22T14:32:33;48.70;;;35.70;;
10100;SDS011;5090;51.258;4.436;2023-06-22T14:35:01;49.93;;;34.80;;
10100;SDS011;5090;51.258;4.436;2023-06-22T14:37:29;55.53;;;36.37;;
10100;SDS011;5090;51.258;4.436;2023-06-22T14:39:58;51.72;;;34.90;;
10100;SDS011;5090;51.258;4.436;2023-06-22T14:42:26;48.90;;;34.23;;
10100;SDS011;5090;51.258;4.436;2023-06-22T14:44:54;51.13;;;36.87;;
10100;SDS011;5090;51.258;4.436;2023-06-22T14:47:22;48.57;;;35.33;;
10100;SDS011;5090;51.258;4.436;2023-06-22T14:49:51;46.57;;;35.17;;